23. Mai 2022

Uhrzeit Code Wetter Temp. Sichtweite Wolken Wind METAR/SPECI
09:35
V
13 °C 14 km 7.000 ft 160°   160° 6 kt METAR KORS 231635Z AUTO 16006KT 9SM OVC070 13/09 A3017 RMK AO2
09:15
V
12 °C 14 km 6.500 ft 170°   170° 7 kt METAR KORS 231615Z AUTO 17007KT 9SM OVC065 12/09 A3017 RMK AO2
08:55
V
11 °C 14 km 7.000 ft 180°   180° 8 kt METAR KORS 231555Z AUTO 18008KT 9SM OVC070 11/09 A3017 RMK AO2
08:35
V
12 °C 14 km 7.500 ft 170°   170° 9 kt METAR KORS 231535Z AUTO 17009KT 9SM OVC075 12/09 A3017 RMK AO2
08:15
V
12 °C 14 km 7.500 ft 170°   170° 8 kt METAR KORS 231515Z AUTO 17008KT 9SM OVC075 12/09 A3017 RMK AO2
07:55
V
12 °C 16 km 7.000 ft 170°   170° 8 kt METAR KORS 231455Z AUTO 17008KT 10SM OVC070 12/09 A3016 RMK AO2
07:35
V
12 °C 14 km 7.500 ft 180°   180° 8 kt METAR KORS 231435Z AUTO 18008KT 9SM OVC075 12/08 A3016 RMK AO2
07:15
V
12 °C 14 km 7.500 ft 160°   160° 6 kt METAR KORS 231415Z AUTO 16006KT 9SM OVC075 12/08 A3015 RMK AO2
06:55
V
11 °C 14 km 7.000 ft 170°   170° 7 kt METAR KORS 231355Z AUTO 17007KT 9SM BKN070 BKN080 11/09 A3015 RMK AO2
06:35
V
12 °C 14 km 7.500 ft 170°   170° 7 kt METAR KORS 231335Z AUTO 17007KT 9SM -RA OVC075 12/08 A3015 RMK AO2
06:15
V
12 °C 14 km 7.500 ft 140°   140° 3 kt METAR KORS 231315Z AUTO 14003KT 9SM FEW070 OVC075 12/08 A3015 RMK AO2
05:55
V
12 °C 16 km 7.000 ft 170°   170° 6 kt METAR KORS 231255Z AUTO 17006KT 10SM OVC070 12/08 A3014 RMK AO2
05:35
V
12 °C 16 km 8.000 ft 170°   170° 7 kt METAR KORS 231235Z AUTO 17007KT 10SM OVC080 12/08 A3015 RMK AO2
05:15
V
12 °C 16 km 8.000 ft 180°   180° 8 kt METAR KORS 231215Z AUTO 18008KT 10SM FEW065 SCT070 OVC080 12/08 A3014 RMK AO2
04:55
V
12 °C 16 km 6.500 ft 170°   170° 9 kt METAR KORS 231155Z AUTO 17009KT 10SM BKN065 OVC080 12/09 A3014 RMK AO2
04:35
V
12 °C 16 km 7.500 ft 170°   170° 10 kt METAR KORS 231135Z AUTO 17010KT 10SM OVC075 12/08 A3015 RMK AO2
04:15
V
13 °C 16 km 7.500 ft Var   Var 7 kt METAR KORS 231115Z AUTO VRB07KT 10SM OVC075 13/07 A3014 RMK AO2
03:55
V
12 °C 16 km 7.500 ft 160°   160° 4 kt METAR KORS 231055Z AUTO 16004KT 10SM FEW060 OVC075 12/08 A3014 RMK AO2
03:35
V
12 °C 16 km 7.500 ft 180°   180° 9 kt METAR KORS 231035Z AUTO 18009KT 10SM OVC075 12/08 A3014 RMK AO2
03:15
V
12 °C 16 km 7.000 ft 160°   160° 6 kt METAR KORS 231015Z AUTO 16006KT 10SM OVC070 12/08 A3014 RMK AO2
02:55
V
12 °C 16 km 7.000 ft 180°   180° 7 kt METAR KORS 230955Z AUTO 18007KT 10SM OVC070 12/09 A3015 RMK AO2
02:35
V
12 °C 14 km 7.000 ft 150°   150° 5 kt METAR KORS 230935Z AUTO 15005KT 9SM FEW065 OVC070 12/09 A3015 RMK AO2
02:15
V
12 °C 16 km 7.500 ft 170°   170° 4 kt METAR KORS 230915Z AUTO 17004KT 10SM FEW060 OVC075 12/09 A3015 RMK AO2
01:55
V
12 °C 14 km 7.500 ft 170°   170° 5 kt METAR KORS 230855Z AUTO 17005KT 9SM BKN075 OVC095 12/09 A3015 RMK AO2
01:35
V
12 °C 14 km 7.500 ft 140°   140° 5 kt METAR KORS 230835Z AUTO 14005KT 9SM FEW047 SCT070 BKN075 12/09 A3015 RMK AO2
01:15
V
12 °C 14 km 9.000 ft 150°   150° 5 kt METAR KORS 230815Z AUTO 15005KT 9SM FEW075 OVC090 12/09 A3015 RMK AO2
00:55
V
12 °C 14 km 8.500 ft 170°   170° 8 kt METAR KORS 230755Z AUTO 17008KT 9SM FEW044 BKN085 OVC110 12/09 A3015 RMK AO2
00:35
V
13 °C 16 km 8.000 ft 160°   160° 7 kt METAR KORS 230735Z AUTO 16007KT 10SM OVC080 13/09 A3015 RMK AO2
00:15
V
13 °C 14 km 8.000 ft 180°   180° 6 kt METAR KORS 230715Z AUTO 18006KT 9SM OVC080 13/09 A3015 RMK AO2

22. Mai 2022

Uhrzeit Code Wetter Temp. Sichtweite Wolken Wind METAR/SPECI
23:55
V
13 °C 16 km 8.000 ft 180°   180° 8 kt METAR KORS 230655Z AUTO 18008KT 10SM BKN080 OVC095 13/09 A3014 RMK AO2
23:35
V
13 °C 16 km 8.500 ft 170°   170° 5 kt METAR KORS 230635Z AUTO 17005KT 10SM BKN085 BKN120 13/09 A3014 RMK AO2
23:15
V
13 °C 16 km 8.500 ft 150°   150° 5 kt METAR KORS 230615Z AUTO 15005KT 10SM BKN085 13/09 A3014 RMK AO2
22:55
V
13 °C 16 km 9.000 ft 180°   180° 9 kt METAR KORS 230555Z AUTO 18009KT 10SM BKN090 13/09 A3014 RMK AO2
22:35
V
13 °C 14 km - 170°   170° 8 kt METAR KORS 230535Z AUTO 17008KT 9SM CLR 13/09 A3014 RMK AO2
22:15
V
14 °C 16 km - 170°   170° 7 kt METAR KORS 230515Z AUTO 17007KT 10SM CLR 14/09 A3014 RMK AO2
21:55
V
14 °C 16 km - 170°   170° 7 kt METAR KORS 230455Z AUTO 17007KT 10SM SCT090 14/09 A3014 RMK AO2
21:35
V
14 °C 16 km 9.000 ft 170°   170° 8 kt METAR KORS 230435Z AUTO 17008KT 10SM BKN090 14/09 A3014 RMK AO2
21:15
V
14 °C 16 km - 160°   160° 8 kt METAR KORS 230415Z AUTO 16008KT 10SM SCT090 14/08 A3014 RMK AO2
20:55
V
15 °C 16 km - 160°   160° 6 kt METAR KORS 230355Z AUTO 16006KT 10SM CLR 15/08 A3013 RMK AO2
20:35
V
15 °C 16 km - 170°   170° 8 kt METAR KORS 230335Z AUTO 17008KT 10SM CLR 15/08 A3013 RMK AO2
20:15
V
16 °C 16 km - 160°   160° 6 kt METAR KORS 230315Z AUTO 16006KT 10SM CLR 16/07 A3013 RMK AO2
19:55
V
16 °C 16 km - 160°   160° 6 kt METAR KORS 230255Z AUTO 16006KT 10SM FEW100 16/07 A3014 RMK AO2
19:35
V
17 °C 16 km - 170°   170° 7 kt METAR KORS 230235Z AUTO 17007KT 10SM SCT100 17/06 A3014 RMK AO2
19:15
V
17 °C 16 km - 170°   170° 4 kt METAR KORS 230215Z AUTO 17004KT 10SM CLR 17/06 A3014 RMK AO2
18:55
V
18 °C 16 km - 170°   170° 6 kt METAR KORS 230155Z AUTO 17006KT 10SM CLR 18/06 A3015 RMK AO2
18:35
V
18 °C 16 km - 170°   170° 6 kt METAR KORS 230135Z AUTO 17006KT 10SM CLR 18/07 A3015 RMK AO2
18:15
V
18 °C 16 km - 190°   190° 6 kt METAR KORS 230115Z AUTO 19006KT 10SM CLR 18/05 A3016 RMK AO2
17:55
V
17 °C 13 km - Var   000° 0 kt METAR KORS 230055Z AUTO 00000KT 8SM CLR 17/09 A3016 RMK AO2
17:35
V
17 °C 14 km - 320°   320° 3 kt METAR KORS 230035Z AUTO 32003KT 9SM CLR 17/09 A3016 RMK AO2
17:15
V
16 °C 14 km - 320°   320° 3 kt METAR KORS 230015Z AUTO 32003KT 9SM CLR 16/10 A3017 RMK AO2
16:35
V
16 °C 16 km - 340°   340° 3 kt METAR KORS 222335Z AUTO 34003KT 10SM CLR 16/09 A3018 RMK AO2
16:15
V
16 °C 16 km - 340°   340° 4 kt METAR KORS 222315Z AUTO 34004KT 10SM CLR 16/09 A3018 RMK AO2
15:55
V
16 °C 16 km - Var   000° 0 kt METAR KORS 222255Z AUTO 00000KT 10SM CLR 16/09 A3019 RMK AO2
15:35
V
16 °C 14 km - 340°   340° 4 kt METAR KORS 222235Z AUTO 34004KT 9SM CLR 16/09 A3020 RMK AO2
15:15
V
15 °C 16 km - 320°   320° 4 kt METAR KORS 222215Z AUTO 32004KT 10SM CLR 15/09 A3020 RMK AO2
14:55
V
15 °C 16 km - 350°   350° 4 kt METAR KORS 222155Z AUTO 35004KT 10SM CLR 15/09 A3020 RMK AO2
14:35
V
15 °C 16 km - 360°   360° 5 kt METAR KORS 222135Z AUTO 36005KT 10SM CLR 15/09 A3021 RMK AO2
14:15
V
15 °C 14 km - 010°   010° 5 kt METAR KORS 222115Z AUTO 01005KT 9SM CLR 15/09 A3022 RMK AO2
13:55
V
14 °C 14 km - 360°   360° 4 kt METAR KORS 222055Z AUTO 36004KT 9SM CLR 14/09 A3022 RMK AO2
13:35
V
14 °C 14 km - 360°   360° 4 kt METAR KORS 222035Z AUTO 36004KT 9SM CLR 14/10 A3023 RMK AO2
13:15
V
14 °C 14 km - 330°   330° 6 kt METAR KORS 222015Z AUTO 33006KT 9SM CLR 14/10 A3023 RMK AO2
12:55
V
15 °C 14 km - 010°   010° 4 kt METAR KORS 221955Z AUTO 01004KT 9SM CLR 15/09 A3023 RMK AO2
12:35
V
15 °C 14 km - 350°   350° 4 kt METAR KORS 221935Z AUTO 35004KT 9SM CLR 15/10 A3023 RMK AO2
12:15
V
14 °C 14 km - 350°   350° 4 kt METAR KORS 221915Z AUTO 35004KT 9SM CLR 14/10 A3024 RMK AO2
11:55
V
13 °C 14 km - 340°   340° 5 kt METAR KORS 221855Z AUTO 34005KT 9SM CLR 13/10 A3025 RMK AO2
11:35
V
12 °C 14 km - 350°   350° 4 kt METAR KORS 221835Z AUTO 35004KT 9SM CLR 12/09 A3025 RMK AO2
11:15
V
13 °C 14 km - 340°   340° 6 kt METAR KORS 221815Z AUTO 34006KT 9SM CLR 13/09 A3025 RMK AO2
10:55
V
14 °C 14 km - 360°   360° 5 kt METAR KORS 221755Z AUTO 36005KT 9SM CLR 14/10 A3025 RMK AO2
10:35
V
14 °C 14 km - 010°   010° 4 kt METAR KORS 221735Z AUTO 01004KT 9SM CLR 14/09 A3025 RMK AO2
10:15
V
14 °C 16 km - 190°   190° 7 kt METAR KORS 221715Z AUTO 19007KT 10SM CLR 14/09 A3025 RMK AO2
09:55
V
13 °C 16 km - 190°   190° 8 kt METAR KORS 221655Z AUTO 19008KT 10SM CLR 13/09 A3025 RMK AO2
09:35
V
13 °C 14 km - 180°   180° 8 kt METAR KORS 221635Z AUTO 18008KT 9SM CLR 13/09 A3025 RMK AO2
09:15
V
13 °C 14 km - 170°   170° 7 kt METAR KORS 221615Z AUTO 17007KT 9SM CLR 13/09 A3025 RMK AO2
08:55
V
13 °C 16 km - 180°   180° 7 kt METAR KORS 221555Z AUTO 18007KT 10SM CLR 13/09 A3025 RMK AO2
08:35
V
12 °C 16 km - 180°   180° 10 kt METAR KORS 221535Z AUTO 18010KT 10SM CLR 12/09 A3024 RMK AO2
08:15
V
11 °C 14 km - 190°   190° 10 kt METAR KORS 221515Z AUTO 19010KT 9SM CLR 11/09 A3025 RMK AO2
07:55
V
11 °C 14 km - 190°   190° 10 kt METAR KORS 221455Z AUTO 19010KT 9SM CLR 11/09 A3025 RMK AO2
07:35
V
11 °C 14 km - 190°   190° 8 kt METAR KORS 221435Z AUTO 19008KT 9SM CLR 11/09 A3025 RMK AO2
07:15
V
11 °C 14 km - 190°   190° 5 kt METAR KORS 221415Z AUTO 19005KT 9SM CLR 11/09 A3025 RMK AO2
06:55
V
11 °C 14 km - 170°   170° 3 kt METAR KORS 221355Z AUTO 17003KT 9SM CLR 11/09 A3024 RMK AO2
06:35
V
10 °C 14 km - Var   000° 0 kt METAR KORS 221335Z AUTO 00000KT 9SM CLR 10/09 A3024 RMK AO2
06:15
V
10 °C 14 km - Var   000° 0 kt METAR KORS 221315Z AUTO 00000KT 9SM CLR 10/09 A3024 RMK AO2
05:55
V
9 °C 14 km - 160°   160° 3 kt METAR KORS 221255Z AUTO 16003KT 9SM CLR 09/09 A3023 RMK AO2
05:35
V
9 °C 16 km - Var   000° 0 kt METAR KORS 221235Z AUTO 00000KT 10SM CLR 09/07 A3024 RMK AO2
05:15
V
9 °C 16 km - Var   000° 0 kt METAR KORS 221215Z AUTO 00000KT 10SM CLR 09/07 A3024 RMK AO2
04:55
V
9 °C 16 km - 180°   180° 4 kt METAR KORS 221155Z AUTO 18004KT 10SM CLR 09/07 A3024 RMK AO2
04:35
V
9 °C 16 km - Var   000° 0 kt METAR KORS 221135Z AUTO 00000KT 10SM CLR 09/07 A3023 RMK AO2
04:15
V
9 °C 16 km - Var   000° 0 kt METAR KORS 221115Z AUTO 00000KT 10SM CLR 09/07 A3023 RMK AO2
03:55
V
10 °C 16 km - Var   000° 0 kt METAR KORS 221055Z AUTO 00000KT 10SM CLR 10/08 A3023 RMK AO2
03:35
V
10 °C 16 km - 150°   150° 5 kt METAR KORS 221035Z AUTO 15005KT 10SM CLR 10/08 A3022 RMK AO2
03:15
V
11 °C 16 km - Var   Var 4 kt METAR KORS 221015Z AUTO VRB04KT 10SM CLR 11/08 A3022 RMK AO2
02:55
V
11 °C 16 km - Var   Var 5 kt METAR KORS 220955Z AUTO VRB05KT 10SM CLR 11/08 A3022 RMK AO2
02:35
V
11 °C 16 km - 150°   150° 4 kt METAR KORS 220935Z AUTO 15004KT 10SM CLR 11/07 A3022 RMK AO2
02:15
V
11 °C 16 km - 170°   170° 6 kt METAR KORS 220915Z AUTO 17006KT 10SM CLR 11/07 A3022 RMK AO2
01:55
V
11 °C 16 km - 150°   150° 4 kt METAR KORS 220855Z AUTO 15004KT 10SM CLR 11/07 A3022 RMK AO2
01:35
V
11 °C 16 km - 140°   140° 5 kt METAR KORS 220835Z AUTO 14005KT 10SM CLR 11/07 A3022 RMK AO2
01:15
V
11 °C 16 km - 140°   140° 5 kt METAR KORS 220815Z AUTO 14005KT 10SM CLR 11/06 A3022 RMK AO2
00:55
V
11 °C 16 km - 160°   160° 4 kt METAR KORS 220755Z AUTO 16004KT 10SM CLR 11/06 A3022 RMK AO2
00:35
V
12 °C 16 km - 150°   150° 5 kt METAR KORS 220735Z AUTO 15005KT 10SM CLR 12/06 A3022 RMK AO2
00:15
V
11 °C 16 km - 150°   150° 4 kt METAR KORS 220715Z AUTO 15004KT 10SM CLR 11/06 A3021 RMK AO2

21. Mai 2022

Uhrzeit Code Wetter Temp. Sichtweite Wolken Wind METAR/SPECI
23:55
V
12 °C 16 km - 150°   150° 4 kt METAR KORS 220655Z AUTO 15004KT 10SM CLR 12/06 A3021 RMK AO2
23:35
V
12 °C 16 km - 150°   150° 4 kt METAR KORS 220635Z AUTO 15004KT 10SM CLR 12/06 A3021 RMK AO2
23:15
V
12 °C 16 km - 150°   150° 4 kt METAR KORS 220615Z AUTO 15004KT 10SM CLR 12/06 A3021 RMK AO2
22:55
V
13 °C 14 km - 150°   150° 3 kt METAR KORS 220555Z AUTO 15003KT 9SM CLR 13/06 A3021 RMK AO2
22:35
V
13 °C 16 km - 160°   160° 3 kt METAR KORS 220535Z AUTO 16003KT 10SM CLR 13/06 A3021 RMK AO2
22:15
V
13 °C 16 km - 150°   150° 4 kt METAR KORS 220515Z AUTO 15004KT 10SM CLR 13/07 A3021 RMK AO2
21:55
V
13 °C 16 km - 180°   180° 4 kt METAR KORS 220455Z AUTO 18004KT 10SM CLR 13/07 A3020 RMK AO2
21:35
V
13 °C 16 km - 170°   170° 4 kt METAR KORS 220435Z AUTO 17004KT 10SM CLR 13/08 A3020 RMK AO2
21:15
V
13 °C 16 km - Var   000° 0 kt METAR KORS 220415Z AUTO 00000KT 10SM CLR 13/07 A3020 RMK AO2
20:55
V
14 °C 16 km - 140°   140° 3 kt METAR KORS 220355Z AUTO 14003KT 10SM CLR 14/07 A3019 RMK AO2
20:35
V
14 °C 16 km - 170°   170° 4 kt METAR KORS 220335Z AUTO 17004KT 10SM CLR 14/07 A3019 RMK AO2
20:15
V
15 °C 16 km - Var   000° 0 kt METAR KORS 220315Z AUTO 00000KT 10SM CLR 15/08 A3018 RMK AO2
19:55
V
16 °C 16 km - Var   000° 0 kt METAR KORS 220255Z AUTO 00000KT 10SM CLR 16/08 A3018 RMK AO2
19:35
V
16 °C 16 km - Var   000° 0 kt METAR KORS 220235Z AUTO 00000KT 10SM CLR 16/06 A3018 RMK AO2
19:15
V
16 °C 16 km - Var   000° 0 kt METAR KORS 220215Z AUTO 00000KT 10SM CLR 16/06 A3017 RMK AO2
18:55
V
16 °C 16 km - 340°   340° 3 kt METAR KORS 220155Z AUTO 34003KT 10SM CLR 16/05 A3017 RMK AO2
18:35
V
17 °C 14 km - 320°   320° 5 kt METAR KORS 220135Z AUTO 32005KT 9SM CLR 17/05 A3017 RMK AO2
18:15
V
17 °C 16 km - 320°   320° 5 kt METAR KORS 220115Z AUTO 32005KT 10SM CLR 17/05 A3018 RMK AO2
17:55
V
16 °C 16 km - 320°   320° 4 kt METAR KORS 220055Z AUTO 32004KT 10SM CLR 16/06 A3018 RMK AO2
17:35
V
16 °C 16 km - 330°   330° 5 kt METAR KORS 220035Z AUTO 33005KT 10SM CLR 16/07 A3019 RMK AO2
17:15
V
16 °C 16 km - 330°   330° 5 kt METAR KORS 220015Z AUTO 33005KT 10SM CLR 16/07 A3019 RMK AO2
16:55
V
16 °C 16 km - 340°   340° 3 kt METAR KORS 222355Z AUTO 34003KT 10SM CLR 16/09 A3018 RMK AO2
16:35
V
16 °C 16 km - 330°   330° 6 kt METAR KORS 212335Z AUTO 33006KT 10SM CLR 16/06 A3019 RMK AO2
16:15
V
17 °C 16 km - 330°   330° 5 kt METAR KORS 212315Z AUTO 33005KT 10SM CLR 17/06 A3019 RMK AO2
15:55
V
16 °C 16 km - 310°   310° 6 kt METAR KORS 212255Z AUTO 31006KT 10SM CLR 16/07 A3020 RMK AO2
15:35
V
16 °C 16 km - Var   Var 5 kt METAR KORS 212235Z AUTO VRB05KT 10SM CLR 16/07 A3020 RMK AO2
15:15
V
15 °C 16 km - 340°   340° 6 kt METAR KORS 212215Z AUTO 34006KT 10SM CLR 15/07 A3021 RMK AO2
14:55
V
15 °C 14 km - 320°   320° 6 kt METAR KORS 212155Z AUTO 32006KT 9SM CLR 15/07 A3021 RMK AO2
14:35
V
15 °C 16 km - 330°   330° 6 kt METAR KORS 212135Z AUTO 33006KT 10SM CLR 15/07 A3021 RMK AO2
14:15
V
15 °C 16 km - 340°   340° 5 kt METAR KORS 212115Z AUTO 34005KT 10SM CLR 15/07 A3021 RMK AO2
13:55
V
14 °C 14 km - 330°   330° 6 kt METAR KORS 212055Z AUTO 33006KT 9SM CLR 14/07 A3022 RMK AO2
13:35
V
15 °C 14 km - 350°   350° 5 kt METAR KORS 212035Z AUTO 35005KT 9SM CLR 15/07 A3022 RMK AO2
13:15
V
14 °C 16 km - 360°   360° 5 kt METAR KORS 212015Z AUTO 36005KT 10SM CLR 14/07 A3023 RMK AO2
12:55
V
14 °C 14 km - 010°   010° 4 kt METAR KORS 211955Z AUTO 01004KT 9SM CLR 14/07 A3023 RMK AO2
12:35
V
14 °C 16 km - Var   Var 4 kt METAR KORS 211935Z AUTO VRB04KT 10SM CLR 14/07 A3023 RMK AO2
12:15
V
14 °C 16 km - 360°   360° 5 kt METAR KORS 211915Z AUTO 36005KT 10SM CLR 14/08 A3024 RMK AO2
11:55
V
13 °C 14 km - Var   Var 3 kt METAR KORS 211855Z AUTO VRB03KT 9SM CLR 13/08 A3023 RMK AO2
11:35
V
13 °C 16 km - 360°   360° 3 kt METAR KORS 211835Z AUTO 36003KT 10SM CLR 13/07 A3023 RMK AO2
11:15
V
13 °C 14 km - 350°   350° 4 kt METAR KORS 211815Z AUTO 35004KT 9SM CLR 13/08 A3023 RMK AO2
10:55
V
13 °C 14 km - 360°   360° 5 kt METAR KORS 211755Z AUTO 36005KT 9SM CLR 13/08 A3023 RMK AO2
10:35
V
12 °C 14 km - 340°   340° 6 kt METAR KORS 211735Z AUTO 34006KT 9SM CLR 12/08 A3023 RMK AO2
10:15
V
12 °C 16 km - 340°   340° 5 kt METAR KORS 211715Z AUTO 34005KT 10SM CLR 12/07 A3023 RMK AO2
09:55
V
12 °C 16 km - 360°   360° 4 kt METAR KORS 211655Z AUTO 36004KT 10SM CLR 12/08 A3024 RMK AO2
09:35
V
11 °C 14 km - 350°   350° 4 kt METAR KORS 211635Z AUTO 35004KT 9SM CLR 11/08 A3024 RMK AO2
09:15
V
11 °C 14 km - 340°   340° 4 kt METAR KORS 211615Z AUTO 34004KT 9SM CLR 11/08 A3023 RMK AO2
08:55
V
11 °C 14 km - 350°   350° 3 kt METAR KORS 211555Z AUTO 35003KT 9SM CLR 11/08 A3023 RMK AO2
08:35
V
11 °C 16 km - Var   000° 0 kt METAR KORS 211535Z AUTO 00000KT 10SM CLR 11/08 A3023 RMK AO2
08:15
V
11 °C 16 km - Var   000° 0 kt METAR KORS 211515Z AUTO 00000KT 10SM CLR 11/08 A3023 RMK AO2
07:55
V
10 °C 14 km - Var   000° 0 kt METAR KORS 211455Z AUTO 00000KT 9SM CLR 10/08 A3023 RMK AO2
Ältere Daten

Laden Sie unsere App herunter

Einfacher Zugriff auf das gesamte Flugwetter auf Ihrem Mobiltelefon und Tablet.
Mit vielen Funktionen, die auf der Website nicht verfügbar sind, wie Offline-Unterstützung und eine persönliche Flughafenliste.

Wir und Dritte verfolgen dein Internetverhalten auf unserer Website mit Cookies. Wenn du fortfährst, gehen wir davon aus, dass du mit unserer Cookie-Richtlinie einverstanden bist. Mehr erfahren